KSLG/SLG METAR and TAF weather

Enter ICAO airport designator
Station Type Date Time Source
KSLG METAR 2020/09/18 05:56 UTC NOAA

KSLG 180556Z AUTO 04004KT 10SM CLR 17/13 A3014 RMK AO2 SLP196 T01720133 10233 20167 402830144 51006 TSNO


Station Type Date Time Source
KSLG Decoded METAR 2020/09/18 05:56 UTC NOAA

Siloam Springs, Smith Field Airport, AR, United States (KSLG) 36-12N 094-29W
Sep 18, 2020 - 01:56 AM EDT / 2020.09.18 0556 UTC
Wind: from the NE (040 degrees) at 5 MPH (4 KT):0
Visibility: 10 mile(s):0
Sky conditions: clear
Temperature: 63.0 F (17.2 C)
Dew Point: 55.9 F (13.3 C)
Relative Humidity: 77%
Pressure (altimeter): 30.14 in. Hg (1020 hPa)
Pressure tendency: 0.02 inches (0.6 hPa) higher than three hours ago
ob: KSLG 180556Z AUTO 04004KT 10SM CLR 17/13 A3014 RMK AO2 SLP196 T01720133 10233 20167 402830144 51006 TSNO
cycle: 6

Station Type Date Time Source
KSLG TAF UTC NOAA

Error!

Example: see airport list